• Join FlightAware (Why Join?)
  • Login
  • US Flag 
08:12PM EDT


 

Airport Tracker/Info


-or-


 

Live Flight TrackerFlight Track Log ✈ AAL1774 ✈ 20-Jun-2013 ✈ TIST / STT - KMIA

Flight Track Log - Related Links

Times and Time Zones

All times are in EDT time to prevent confusion due to time zone crossing. See the AAL1774 flight status page for this flight to view local times or setup timezone preferences in your user account.

Time Position Orientation Groundspeed Altitude Reporting Facility
EDT Latitude Longitude Course Direction KTS MPH feet Rate Location/Type
08:55AM 18.3333 -64.9500 281° West 140 161 1,300  Level San Juan Center
08:56AM 18.2833 -64.9500 180° South 230 265 3,300 2,340 Climbing San Juan Center
08:57AM 18.2500 -65.0333 247° West 290 334 6,100 2,820 Climbing San Juan Center
08:58AM 18.3028 -65.3375 283° West  Level FlightAware Approximate
08:58AM 18.2667 -65.1167 282° West 310 357 9,000  Level San Juan Center
08:59AM 18.3288 -65.4608 282° West  Level FlightAware Approximate
08:59AM 18.2833 -65.2167 280° West 330 380 10,900  Level San Juan Center
09:00AM 18.3557 -65.5837 289° West  Level FlightAware Approximate
09:00AM 18.3000 -65.3000 282° West 360 414 12,700  Level San Juan Center
09:01AM 18.3825 -65.7064 281° West  Level FlightAware Approximate
09:01AM 18.3167 -65.4167 279° West 360 414 15,300  Level San Juan Center
09:02AM 18.3500 -65.5167 289° West 390 449 17,300 1,980 Climbing San Juan Center
09:03AM 18.4000 -65.6167 298° West 390 449 19,300 1,800 Climbing San Juan Center
09:04AM 18.4667 -65.7167 305° West 400 460 21,000 1,620 Climbing San Juan Center
09:05AM 18.5333 -65.8000 310° West 410 472 22,600 1,620 Climbing San Juan Center
09:06AM 18.6000 -65.9000 305° West 430 495 24,300 1,740 Climbing San Juan Center
09:07AM 18.6833 -66.0000 311° West 430 495 26,200 1,800 Climbing San Juan Center
09:08AM 18.7667 -66.1167 307° West 450 518 27,900 1,620 Climbing San Juan Center
09:09AM 18.8333 -66.2167 305° West 450 518 29,500 1,560 Climbing San Juan Center
09:10AM 18.9167 -66.3167 311° West 460 529 31,100 1,740 Climbing San Juan Center
09:11AM 19.0000 -66.4333 307° West 460 529 33,000 1,740 Climbing San Juan Center
09:12AM 19.0833 -66.5333 311° West 460 529 34,700 1,680 Climbing San Juan Center
09:13AM 19.1500 -66.6500 301° West 460 529 36,400 1,440 Climbing San Juan Center
09:14AM 19.2500 -66.7500 317° Northwest 460 529 37,600 780 Climbing San Juan Center
09:15AM 19.3167 -66.8500 305° West 450 518 38,000 180 Climbing San Juan Center
09:16AM 19.4000 -66.9667 307° West 440 506 38,000  Level San Juan Center
09:17AM 19.4667 -67.0667 305° West 440 506 38,000  Level San Juan Center
09:18AM 19.5500 -67.1667 311° West 440 506 38,000  Level San Juan Center
09:19AM 19.6333 -67.2667 312° West 440 506 38,000  Level San Juan Center
09:20AM 19.7000 -67.3667 305° West 440 506 38,000  Level San Juan Center
09:21AM 19.7667 -67.4667 305° West 420 483 38,000  Level San Juan Center
09:22AM 19.8333 -67.5833 301° West 440 506 38,000  Level San Juan Center
09:23AM 19.9167 -67.6833 312° West 450 518 38,000  Level San Juan Center
09:24AM 19.9833 -67.7833 305° West 450 518 38,000  Level San Juan Center
09:25AM 20.0667 -67.9000 307° West 450 518 38,000  Level San Juan Center
09:26AM 20.1500 -68.0000 312° West 450 518 38,000  Level San Juan Center
09:27AM 20.1942 -68.0917 297° West 454 522 38,000  Level Miami Center
09:28AM 20.2731 -68.1989 308° West 464 534 38,000  Level Miami Center
09:29AM 20.3417 -68.3094 304° West 464 534 38,000  Level Miami Center
09:30AM 20.4022 -68.4269 299° West 459 528 38,000  Level Miami Center
09:31AM 20.4625 -68.5447 299° West 449 517 38,000  Level Miami Center
09:32AM 20.5211 -68.6650 298° West 449 517 38,000  Level Miami Center
09:33AM 20.5792 -68.7831 298° West 454 522 38,000  Level Miami Center
09:34AM 20.6394 -68.9011 299° West 454 522 38,000  Level Miami Center
09:35AM 20.6978 -69.0239 297° West 459 528 38,000  Level Miami Center
09:36AM 20.7558 -69.1425 298° West 459 528 38,000  Level Miami Center
09:37AM 20.8117 -69.2633 296° West 459 528 38,000  Level Miami Center
09:38AM 20.8669 -69.3689 299° West 459 528 38,000  Level Miami Center
09:39AM 20.9247 -69.4897 297° West 459 528 38,000  Level Miami Center
09:40AM 20.9825 -69.6108 297° West 459 528 38,000  Level Miami Center
09:41AM 21.0425 -69.7319 298° West 459 528 38,000  Level Miami Center
09:42AM 21.1000 -69.8511 297° West 459 528 38,000  Level Miami Center
09:43AM 21.1553 -69.9703 296° West 459 528 38,000  Level Miami Center
09:44AM 21.2147 -70.0872 299° West 459 528 38,000  Level Miami Center
09:45AM 21.2700 -70.2069 296° West 459 528 38,000  Level Miami Center
09:46AM 21.3272 -70.3242 298° West 454 522 38,000  Level Miami Center
09:47AM 21.3842 -70.4394 298° West 449 517 38,000  Level Miami Center
09:48AM 21.4411 -70.5547 298° West 442 509 38,000  Level Miami Center
09:49AM 21.4958 -70.6703 297° West 437 503 38,000  Level Miami Center
09:50AM 21.5594 -70.8011 298° West 443 510 38,000  Level Miami Center
09:51AM 21.6142 -70.9189 297° West 443 510 38,000  Level Miami Center
09:52AM 21.6728 -71.0369 298° West 443 510 38,000  Level Miami Center
09:53AM 21.7275 -71.1594 296° West 443 510 38,000  Level Miami Center
09:54AM 21.7819 -71.2778 296° West 443 510 38,000  Level Miami Center
09:55AM 21.8383 -71.3958 297° West 443 510 38,100  Climbing Miami Center
09:56AM 21.8947 -71.5167 297° West 443 510 38,000 -60 Descending Miami Center
09:57AM 21.9511 -71.6372 297° West 443 510 38,000  Level Miami Center
09:58AM 22.0075 -71.7558 297° West 443 510 38,000  Level Miami Center
09:59AM 22.0614 -71.8769 296° West 443 510 38,000  Level Miami Center
10:00AM 22.1156 -71.9981 296° West 443 510 38,000  Level Miami Center
10:01AM 22.1714 -72.1169 297° West 443 510 38,000  Level Miami Center
10:02AM 22.2292 -72.2339 298° West 443 510 38,000  Level Miami Center
10:03AM 22.2831 -72.3553 296° West 443 510 38,000  Level Miami Center
10:04AM 22.3367 -72.4722 296° West 438 504 38,000  Level Miami Center
10:05AM 22.3881 -72.5942 295° West 438 504 38,000  Level Miami Center
10:06AM 22.4456 -72.7111 298° West 438 504 38,000  Level Miami Center
10:07AM 22.4947 -72.8289 294° West 438 504 38,000  Level Miami Center
10:08AM 22.5500 -72.9461 297° West 438 504 38,000  Level Miami Center
10:09AM 22.6008 -73.0617 295° West 438 504 38,000  Level Miami Center
10:10AM 22.6519 -73.1772 296° West 433 498 38,000  Level Miami Center
10:11AM 22.7069 -73.2947 297° West 433 498 38,000  Level Miami Center
10:12AM 22.7575 -73.4106 295° West 433 498 38,000  Level Miami Center
10:13AM 22.8125 -73.5261 297° West 433 498 38,000  Level Miami Center
10:14AM 22.8589 -73.6489 292° West 438 504 38,000  Level Miami Center
10:15AM 22.9136 -73.7625 298° West 438 504 38,000  Level Miami Center
10:16AM 22.9661 -73.8831 295° West 438 504 38,000  Level Miami Center
10:17AM 23.0206 -74.0014 297° West 438 504 38,000  Level Miami Center
10:18AM 23.0708 -74.1244 294° West 438 504 38,000  Level Miami Center
10:19AM 23.1233 -74.2453 295° West 438 504 38,000  Level Miami Center
10:20AM 23.1756 -74.3664 295° West 438 504 38,000  Level Miami Center
10:21AM 23.2275 -74.4875 295° West 438 504 38,000  Level Miami Center
10:22AM 23.2817 -74.6108 296° West 443 510 38,000  Level Miami Center
10:23AM 23.3358 -74.7342 296° West 443 510 38,000  Level Miami Center
10:24AM 23.3875 -74.8556 295° West 443 510 38,000  Level Miami Center
10:25AM 23.4433 -74.9792 296° West 448 516 38,000  Level Miami Center
10:26AM 23.4950 -75.1008 295° West 448 516 38,000  Level Miami Center
10:27AM 23.5486 -75.2225 296° West 448 516 38,000  Level Miami Center
10:28AM 23.6003 -75.3464 294° West 448 516 38,000  Level Miami Center
10:29AM 23.6514 -75.4661 295° West 443 510 38,000  Level Miami Center
10:30AM 23.7069 -75.5881 296° West 443 510 38,000  Level Miami Center
10:31AM 23.7581 -75.7100 295° West 443 510 38,000  Level Miami Center
10:32AM 23.8092 -75.8322 295° West 443 510 38,000  Level Miami Center
10:33AM 23.8581 -75.9544 294° West 438 504 38,000  Level Miami Center
10:34AM 23.9108 -76.0747 296° West 438 504 38,000  Level Miami Center
10:35AM 23.9594 -76.1947 294° West 438 504 38,000  Level Miami Center
10:36AM 24.0122 -76.3153 296° West 438 504 38,000  Level Miami Center
10:37AM 24.0608 -76.4400 293° West 438 504 38,000  Level Miami Center
10:38AM 24.1133 -76.5606 296° West 443 510 38,000  Level Miami Center
10:39AM 24.1575 -76.6697 294° West 435 501 38,000  Level Miami Center
10:40AM 24.2097 -76.7950 295° West 435 501 38,000  Level Miami Center
10:41AM 24.2619 -76.9181 295° West 440 506 38,000  Level Miami Center
10:42AM 24.3119 -77.0436 294° West 440 506 38,000  Level Miami Center
10:43AM 24.3642 -77.1644 295° West 440 506 38,000  Level Miami Center
10:44AM 24.4119 -77.2925 292° West 440 506 38,000  Level Miami Center
10:45AM 24.4658 -77.4158 296° West 440 506 38,000  Level Miami Center
10:46AM 24.5197 -77.5531 293° West 440 506 38,000  Level Miami Center
10:47AM 24.5711 -77.6792 294° West 440 506 38,000  Level Miami Center
10:48AM 24.6206 -77.8075 293° West 445 512 38,000  Level Miami Center
10:49AM 24.6719 -77.9336 294° West 445 512 38,000  Level Miami Center
10:50AM 24.7253 -78.0578 295° West 450 518 38,000  Level Miami Center
10:51AM 24.7767 -78.1842 294° West 450 518 38,000  Level Miami Center
10:52AM 24.8278 -78.3083 294° West 450 518 38,000 -300 Level Miami Center
10:53AM 24.8786 -78.4347 294° West 450 518 37,500 -1,200 Descending Miami Center
10:54AM 24.9294 -78.5661 293° West 455 524 35,700 -2,700 Descending Miami Center
10:55AM 24.9822 -78.6928 295° West 455 524 32,200 -4,080 Descending Miami Center
10:56AM 25.0308 -78.8197 293° West 455 524 27,600 -3,420 Descending Miami Center
10:57AM 25.0733 -78.9214 295° West 455 524 25,400 -2,460 Descending Miami Center
10:58AM 25.1381 -79.0625 297° West 442 509 22,700 -2,460 Descending Miami Center
10:59AM 25.1803 -79.1803 292° West 431 496 20,500 -2,220 Descending Miami Center
11:00AM 25.2264 -79.2939 294° West 420 483 18,300 -2,100 Descending Miami Center
11:01AM 25.2725 -79.4050 295° West 410 472 16,300 -2,160 Descending Miami Center
11:02AM 25.3144 -79.5161 293° West 398 458 14,000 -1,920 Descending Miami Center
11:04AM 25.3619 -79.6575 290° West 360 414 11,900 -1,020 Descending Miami Center
11:04AM 25.3881 -79.7225 294° West 373 429 12,000 -420 Climbing Miami Center
11:05AM 25.4406 -79.8019 306° West 341 392 11,200 -960 Descending Miami Center
11:06AM 25.4894 -79.8767 306° West 318 366 10,100 -1,320 Descending Miami Center
11:07AM 25.5358 -79.9494 305° West 303 349 8,600 -1,080 Descending Miami Center
11:08AM 25.5844 -80.0175 308° West 291 335 8,000 -300 Descending Miami Center
11:09AM 25.6311 -80.0922 305° West 291 335 8,000  Level Miami Center
11:10AM 25.6531 -80.1344 300° West 289 333 8,000 -120 Level Miami Center
11:11AM 25.6744 -80.2019 289° West 279 321 7,900  Descending Miami Center
11:11AM 25.6922 -80.2483 293° West 281 323 8,000 -780 Climbing Miami Center
11:12AM 25.7094 -80.3181 285° West 259 298 6,700 -1,620 Descending Miami Center
11:13AM 25.7064 -80.3572 265° West 230 265 5,600 -1,740 Descending Miami Center
11:14AM 25.7025 -80.4331 267° West 232 267 4,100 -1,080 Descending Miami Center
11:15AM 25.7006 -80.5092 268° West 214 246 3,300 -540 Descending Miami Center
11:16AM 25.7419 -80.5289 337° Northwest 205 236 3,000 -300 Descending Miami Center